Current | Forecast
Updated: 9:30 AM EEST on August 21, 2017
Observed at Dnipropetrovs'k, Ukraine
Temperature 27°C
Humidity 37%
Dew Point 11°C
Wind East at 25 km/h
Pressure 1013 hPa (Steady)
Conditions Clear
Visibility -
UV N/A
Clouds
Yesterday's Maximum 36°C
Yesterday's Minimum 21°C approx.
Yesterday's Cooling Degree Days 18 approx.
Sunrise5:45 AM EEST
Sunset7:44 PM EEST
Moon Rise5:02 AM EEST
Moon Set7:38 PM EEST
Moon PhaseMoon Phase
Waning Crescent
Raw METARMETAR UKDD 210630Z 10007MPS CAVOK 27/11 Q1013 R08/090070 NOSIG


Monday
. High: 62° F.
Tuesday
. High: 62° F.
Wednesday
. High: 64° F.
Thursday
. High: 64° F.
Friday
. High: 64° F.
Saturday
. High: 64° F.
Sunday
. High: 66° F.
Monday
. High: 66° F.

Units: English | Metric

Find the Weather for any City, State or Zipcode, or Country:

U.S. State List | Severe Weather | Tropical Storms | Ski Conditions
United States | Canada | Central America | South America | Asia | Europe | Australia | Africa | Islands

Weather Underground

© Copyright 2017
The Weather Company, LLC